KLOT/LOT METAR and TAF weather

Enter ICAO airport designator
Station Type Date Time Source
KLOT METAR 2019/08/26 07:35 UTC NOAA

KLOT 260735Z AUTO 09007KT 10SM BKN043 BKN050 OVC065 19/17 A2989 RMK AO2 T01870167


Station Type Date Time Source
KLOT Decoded METAR 2019/08/26 07:35 UTC NOAA

Station name not available
Aug 26, 2019 - 03:35 AM EDT / 2019.08.26 0735 UTC
Wind: from the E (090 degrees) at 8 MPH (7 KT):0
Visibility: 10 mile(s):0
Sky conditions: overcast
Temperature: 65.7 F (18.7 C)
Dew Point: 62.1 F (16.7 C)
Relative Humidity: 88%
Pressure (altimeter): 29.89 in. Hg (1012 hPa)
ob: KLOT 260735Z AUTO 09007KT 10SM BKN043 BKN050 OVC065 19/17 A2989 RMK AO2 T01870167
cycle: 7

Station Type Date Time Source
KLOT TAF UTC NOAA

Error!

Example: see airport list